Central Oregon RPC :: ALTURUS, CA B

liberation: 2021-05-09  07:30     latitude: 41.489838     longitude: -120.548417 103 birds
# LOFT PRING MILES ARRIVAL SPEED ToWin
1 ROCKY TOP AU19-CORP-4454 192.104 2021-05-09 11:31:57.908 1397.321 00:00:00
2 ROCKY TOP AU16-CORP-7143 192.104 2021-05-09 11:31:59.436 1397.173 00:00:02
3 ROCKY TOP AU18-CORP-3351 192.104 2021-05-09 11:32:00.194 1397.101 00:00:02
4 ROCKY TOP AU18-CORP-3343 192.104 2021-05-09 11:32:00.323 1397.088 00:00:02
5 ROCKY TOP AU17-OTC-0317 192.104 2021-05-09 11:32:53.615 1391.979 00:00:56
6 ROCKY TOP AU19-CORP-4473 192.104 2021-05-09 11:34:31.564 1382.686 00:02:34
7 ROCKY TOP AU19-CORP-4400 192.104 2021-05-09 11:35:37.650 1376.486 00:03:40
8 ROCKY TOP AU18-CORP-3313 192.104 2021-05-09 11:35:38.603 1376.397 00:03:41
9 ROCKY TOP AU17-CORP-0798 192.104 2021-05-09 11:36:12.252 1373.262 00:04:14
10 ROCKY TOP AU18-CORP-3300 192.104 2021-05-09 11:36:24.540 1372.121 00:04:27
11 ROCKY TOP AU18-CORP-3371 192.104 2021-05-09 11:36:32.689 1371.365 00:04:35
12 LUCAS CRAMER AU20-WPC-1528 216.771 2021-05-09 12:08:23.470 1370.436 00:05:21
13 LUCAS CRAMER AU20-GRPC-0547 216.771 2021-05-09 12:08:24.733 1370.332 00:05:23
14 LUCAS CRAMER AU20-GWC-0059 216.771 2021-05-09 12:08:35.364 1369.461 00:05:33
15 LUCAS CRAMER AU20-FAM-0007 216.771 2021-05-09 12:08:51.317 1368.155 00:05:49
16 STEELE LOFT AU20-CORP-5034 198.722 2021-05-09 11:46:44.815 1362.240 00:06:27
17 RUETER FAMILY LOFT AU19-CORP-5477 226.862 2021-05-09 12:23:19.501 1361.212 00:07:35
18 LUCAS CRAMER AU20-PUEB-20507 216.771 2021-05-09 12:11:17.145 1356.334 00:08:15
19 AMERICAN LOFT AU19-CORP-4635 197.089 2021-05-09 11:48:05.680 1343.991 00:09:51
20 LUCAS CRAMER AU20-DBJ-1929 216.771 2021-05-09 12:14:36.509 1340.499 00:11:34
21 LUCAS CRAMER AU20-PLAT-18413 216.771 2021-05-09 12:17:18.667 1327.889 00:14:17
22 ROCKY TOP AU20-CORP-4476 192.104 2021-05-09 11:45:06.636 1325.319 00:13:09
23 RUETER FAMILY LOFT AU20-CORP-4635 226.862 2021-05-09 12:33:23.841 1316.021 00:17:39
24 AMERICAN LOFT AU19-CORP-4706 197.089 2021-05-09 11:54:09.419 1313.147 00:15:55
25 AMERICAN LOFT AU20-CORP-5573 197.089 2021-05-09 11:57:47.721 1295.306 00:19:33
26 ROCKY TOP AU19-ARPU-29012 192.104 2021-05-09 11:51:35.831 1292.456 00:19:38
27 STEELE LOFT AU19-CORP-4007 198.722 2021-05-09 12:00:59.175 1290.659 00:20:41
28 STEELE LOFT AU20-AVI-19520 198.722 2021-05-09 12:01:18.446 1289.131 00:21:00
29 LUCAS CRAMER AU20-AA-16309 216.771 2021-05-09 12:26:03.953 1288.623 00:23:02
30 LUCAS CRAMER AU20-ARPU-56021 216.771 2021-05-09 12:26:06.772 1288.419 00:23:05
31 ROCKY TOP AU18-CORP-3310 192.104 2021-05-09 11:53:08.016 1284.909 00:21:10
32 TOPIGEONUSA AU19-CORP-5136 198.536 2021-05-09 12:02:51.770 1280.581 00:22:48
33 TOPIGEONUSA AU19-CORP-4991 198.536 2021-05-09 12:03:47.639 1276.226 00:23:44
34 LUCAS CRAMER AU20-NANZ-0042 216.771 2021-05-09 12:29:04.607 1275.650 00:26:03
35 LUCAS CRAMER AU20-AA-11668 216.771 2021-05-09 12:29:17.121 1274.761 00:26:15
36 LUCAS CRAMER AU20-CORP-4264 216.771 2021-05-09 12:31:35.542 1265.010 00:28:33
37 RUETER FAMILY LOFT AU20-CORP-4574 226.862 2021-05-09 12:45:40.383 1264.845 00:29:56
38 TOPIGEONUSA AU19-CORP-4907 198.536 2021-05-09 12:06:21.068 1264.417 00:26:17
39 LUCAS CRAMER AU20-KFLY-2005 216.771 2021-05-09 12:32:54.462 1259.517 00:29:52
40 ROCKY TOP AU16-CORP-7701 192.104 2021-05-09 12:11:35.881 1200.658 00:39:38
41 RUETER FAMILY LOFT AU19-CORP-5330 226.862 2021-05-09 13:06:52.355 1185.248 00:51:08
42 STEELE LOFT AU15-CORP-3873 198.722 2021-05-09 12:27:02.149 1177.470 00:46:44
43 LUCAS CRAMER AU20-ZA-7650 216.771 2021-05-09 12:56:37.901 1168.035 00:53:36
44 RUETER FAMILY LOFT AU19-CORP-5455 226.862 2021-05-09 13:13:35.692 1162.059 00:57:51
45 RUETER FAMILY LOFT AU19-CORP-5408 226.862 2021-05-09 13:14:04.984 1160.410 00:58:20
46 RUETER FAMILY LOFT AU19-CORP-5250 226.862 2021-05-09 13:14:26.399 1159.207 00:58:42
47 LUCAS CRAMER AU19-LKC-4674 216.771 2021-05-09 12:59:10.417 1159.015 00:56:08
48 LUCAS CRAMER AU19-LKC-4661 216.771 2021-05-09 13:02:07.807 1148.698 00:59:06
49 AMERICAN LOFT AU20-CORP-5530 197.089 2021-05-09 12:33:36.867 1142.491 00:55:22
50 LUCAS CRAMER AU18-CORP-2201 216.771 2021-05-09 13:07:40.044 1129.861 01:04:38
51 LUCAS CRAMER AU20-ARPU-30166 216.771 2021-05-09 13:11:52.955 1115.931 01:08:51
52 LUCAS CRAMER AU20-JEDD-14374 216.771 2021-05-09 13:11:57.062 1115.707 01:08:55
53 AMERICAN LOFT AU20-CORP-5485 197.089 2021-05-09 12:41:06.771 1114.955 01:02:52
54 AMERICAN LOFT AU20-CORP-5415 197.089 2021-05-09 12:41:13.683 1114.542 01:02:59
55 STEELE LOFT AU19-AVI-19525 198.722 2021-05-09 12:45:38.787 1108.046 01:05:21
56 RUETER FAMILY LOFT AU20-CORP-4527 226.862 2021-05-09 13:40:32.959 1077.528 01:24:48
57 LUCAS CRAMER AU19-CORP-4110 216.771 2021-05-09 13:32:23.108 1052.795 01:29:21
58 TOPIGEONUSA AU20-CORP-4841 198.536 2021-05-09 13:03:28.897 1047.803 01:23:25
59 ROCKY TOP AU18-CORP-3353 192.104 2021-05-09 12:59:37.497 1025.720 01:27:40
60 TOPIGEONUSA AU19-CORP-4912 198.536 2021-05-09 13:23:57.466 987.188 01:43:53
61 RUETER FAMILY LOFT AU19-CORP-5331 226.862 2021-05-09 14:14:28.393 987.154 01:58:44
62 RUETER FAMILY LOFT AU18-CORP-2684 226.862 2021-05-09 14:17:43.019 979.300 02:01:58
63 AMERICAN LOFT AU19-CORP-4673 197.089 2021-05-09 13:27:39.769 969.843 01:49:25
64 LUCAS CRAMER AU20-NEM-0634 216.771 2021-05-09 14:19:06.406 932.562 02:16:04
65 LUCAS CRAMER AU17-CORP-1074 216.771 2021-05-09 14:23:34.787 922.476 02:20:33
66 LUCAS CRAMER AU20-HADJ-0025 216.771 2021-05-09 14:31:38.846 904.825 02:28:37
67 LUCAS CRAMER AU20-RAC-2818 216.771 2021-05-09 14:33:47.895 900.233 02:30:46
68 LUCAS CRAMER AU20-TBW-20076 216.771 2021-05-09 14:33:49.059 900.192 02:30:47
69 LUCAS CRAMER AU20-CALA-0003 216.771 2021-05-09 14:33:49.443 900.178 02:30:47
70 LUCAS CRAMER AU20-CORP-4245 216.771 2021-05-09 14:33:50.402 900.145 02:30:48
71 LUCAS CRAMER AU20-GUTZ-0219 216.771 2021-05-09 14:33:59.387 899.827 02:30:57
72 LUCAS CRAMER AU20-ARPU-22504 216.771 2021-05-09 14:34:32.685 898.650 02:31:31
73 LUCAS CRAMER AU18-CORP-2247 216.771 2021-05-09 14:34:33.825 898.610 02:31:32
74 TOPIGEONUSA AU20-CORP-4861 198.536 2021-05-09 14:00:30.206 894.801 02:20:26
75 LUCAS CRAMER AU20-TBW-20080 216.771 2021-05-09 14:40:40.411 885.862 02:37:38
76 TOPIGEONUSA AU18-CORP-4205 198.536 2021-05-09 14:08:56.492 875.875 02:28:53
77 STEELE LOFT AU19-CORP-4008 198.722 2021-05-09 14:13:08.202 867.574 02:32:50
78 STEELE LOFT AU19-CORP-4006 198.722 2021-05-09 14:13:12.617 867.416 02:32:55
79 ROCKY TOP AU19-CORP-4474 192.104 2021-05-09 14:00:18.322 866.252 02:28:20
80 ROCKY TOP AU19-CORP-4405 192.104 2021-05-09 14:00:19.542 866.207 02:28:22
81 ROCKY TOP AU19-CORP-4477 192.104 2021-05-09 14:00:25.214 865.997 02:28:27
82 STEELE LOFT AU19-CORP-4022 198.722 2021-05-09 14:14:09.815 865.370 02:33:52
83 TOPIGEONUSA AU19-CORP-4913 198.536 2021-05-09 14:14:32.228 863.760 02:34:28
84 ROCKY TOP AU19-CORP-4435 192.104 2021-05-09 14:02:25.284 861.581 02:30:27
85 LUCAS CRAMER AU20-LIAN-2034 216.771 2021-05-09 14:59:50.896 848.102 02:56:49
86 ROCKY TOP AU20-CORP-4400 192.104 2021-05-09 14:24:10.932 816.314 02:52:13
87 RUETER FAMILY LOFT AU20-CORP-4566 226.862 2021-05-09 15:44:06.988 808.063 03:28:22
88 RUETER FAMILY LOFT AU19-CORP-5358 226.862 2021-05-09 15:59:06.025 784.280 03:43:21
89 LUCAS CRAMER AU20-GSWC-0755 216.771 2021-05-09 15:39:18.753 779.701 03:36:17
90 RUETER FAMILY LOFT AU19-CORP-5447 226.862 2021-05-09 16:19:11.128 754.513 04:03:26
91 LUCAS CRAMER AU19-LKC-4663 216.771 2021-05-09 15:58:36.715 750.115 03:55:35
92 LUCAS CRAMER AU20-ARPU-30169 216.771 2021-05-09 16:17:24.190 723.388 04:14:22
93 AMERICAN LOFT AU19-CORP-4681 197.089 2021-05-09 16:28:48.396 643.787 04:50:34
94 RUETER FAMILY LOFT AU19-CORP-5458 226.862 2021-05-09 18:33:46.585 601.524 06:18:02
95 AMERICAN LOFT AU19-CORP-4711 197.089 2021-05-09 17:40:31.518 568.161 06:02:17
AMERICAN LOFT AU16-CORP-7557 0 0000-00-00 00:00:00.000 0.000 00:00:00
AMERICAN LOFT AU18-CORP-2550 0 0000-00-00 00:00:00.000 0.000 00:00:00
AMERICAN LOFT AU20-CORP-5554 0 0000-00-00 00:00:00.000 0.000 00:00:00
LUCAS CRAMER AU20-AA-0924 0 0000-00-00 00:00:00.000 0.000 00:00:00
RUETER FAMILY LOFT AU19-CORP-5335 0 0000-00-00 00:00:00.000 0.000 00:00:00
STEELE LOFT AU19-CORP-4035 0 0000-00-00 00:00:00.000 0.000 00:00:00
STEELE LOFT AU20-CORP-5032 0 0000-00-00 00:00:00.000 0.000 00:00:00
TOPIGEONUSA AU20-CORP-4333 0 0000-00-00 00:00:00.000 0.000 00:00:00